createdAt,value
2018-11-05T00:00:42.243Z,101522.52
2018-11-05T00:03:10.984Z,101516.62
2018-11-05T00:05:39.817Z,101511.14
2018-11-05T00:08:08.579Z,101512.62
2018-11-05T00:10:37.317Z,101517.34
2018-11-05T00:13:06.509Z,101512.42
2018-11-05T00:15:35.279Z,101509.25
2018-11-05T00:18:04.077Z,101512.06
2018-11-05T00:20:32.869Z,101512.21
2018-11-05T00:23:01.666Z,101501.84
2018-11-05T00:25:30.388Z,101501.61
2018-11-05T00:27:59.277Z,101502.03
2018-11-05T00:30:28.000Z,101502.17
2018-11-05T00:32:56.724Z,101497.06
2018-11-05T00:35:25.598Z,101501.30
2018-11-05T00:37:54.386Z,101502.40
2018-11-05T00:40:23.120Z,101494.39
2018-11-05T00:42:51.897Z,101493.05
2018-11-05T00:45:20.830Z,101492.59
2018-11-05T00:47:49.587Z,101493.75
2018-11-05T00:50:18.406Z,101483.98
2018-11-05T00:52:47.194Z,101482.19
2018-11-05T00:55:15.949Z,101488.08
2018-11-05T00:57:44.900Z,101481.17
2018-11-05T01:00:15.732Z,101481.03
2018-11-05T01:02:44.670Z,101473.89
2018-11-05T01:05:14.775Z,101486.28
2018-11-05T01:07:44.498Z,101478.27
2018-11-05T01:10:14.403Z,101470.99
2018-11-05T01:12:43.424Z,101472.00
2018-11-05T01:15:13.775Z,101478.82
2018-11-05T01:17:42.618Z,101478.59
2018-11-05T01:20:13.654Z,101475.31
2018-11-05T01:22:42.525Z,101474.13
2018-11-05T01:25:11.394Z,101475.74
2018-11-05T01:27:40.161Z,101467.50
2018-11-05T01:30:11.735Z,101468.13
2018-11-05T01:32:40.524Z,101473.98
2018-11-05T01:35:10.984Z,101470.11
2018-11-05T01:37:39.686Z,101459.89
2018-11-05T01:40:11.571Z,101457.31
2018-11-05T01:42:40.537Z,101457.05
2018-11-05T01:45:10.844Z,101448.70
2018-11-05T01:47:40.034Z,101448.66
2018-11-05T01:50:10.904Z,101439.59
2018-11-05T01:52:39.710Z,101440.64
2018-11-05T01:55:09.198Z,101441.20
2018-11-05T01:57:38.509Z,101440.33
2018-11-05T02:03:13.274Z,101437.05
2018-11-05T02:05:42.631Z,101435.48
2018-11-05T02:08:11.362Z,101434.06
2018-11-05T02:10:40.157Z,101434.62
2018-11-05T02:13:08.909Z,101419.97
2018-11-05T02:15:37.626Z,101428.30
2018-11-05T02:18:06.717Z,101426.41
2018-11-05T02:20:35.495Z,101419.78
2018-11-05T02:23:04.242Z,101429.49
2018-11-05T02:25:33.119Z,101425.81
2018-11-05T02:28:01.819Z,101422.59
2018-11-05T02:30:30.636Z,101418.82
2018-11-05T02:32:59.544Z,101421.48
2018-11-05T02:35:28.323Z,101416.06
2018-11-05T02:37:57.085Z,101419.93
2018-11-05T02:40:25.845Z,101421.95
2018-11-05T02:42:54.556Z,101422.83
2018-11-05T02:45:23.238Z,101416.47
2018-11-05T02:47:52.278Z,101416.75
2018-11-05T02:50:21.036Z,101405.73
2018-11-05T02:52:49.781Z,101405.00
2018-11-05T02:55:18.729Z,101406.79
2018-11-05T02:57:47.431Z,101408.47
2018-11-05T03:00:18.330Z,101399.81
2018-11-05T03:02:47.248Z,101401.88
2018-11-05T03:05:17.221Z,101397.23
2018-11-05T03:07:46.663Z,101398.41
2018-11-05T03:10:15.483Z,101401.87
2018-11-05T03:12:45.281Z,101396.34
2018-11-05T03:15:15.177Z,101393.12
2018-11-05T03:17:44.105Z,101392.89
2018-11-05T03:20:13.929Z,101385.80
2018-11-05T03:22:43.205Z,101388.80
2018-11-05T03:25:12.933Z,101386.03
2018-11-05T03:27:42.114Z,101382.39
2018-11-05T03:30:15.885Z,101372.97
2018-11-05T03:32:44.629Z,101379.09
2018-11-05T03:35:13.925Z,101376.36
2018-11-05T03:37:44.034Z,101376.78
2018-11-05T03:40:13.446Z,101377.89
2018-11-05T03:42:43.234Z,101369.50
2018-11-05T03:45:14.483Z,101367.61
2018-11-05T03:47:43.691Z,101365.73
2018-11-05T03:50:15.156Z,101364.59
2018-11-05T03:52:44.806Z,101370.93
2018-11-05T03:55:14.209Z,101381.57
2018-11-05T03:57:43.181Z,101385.21
2018-11-05T04:00:14.575Z,101375.31
2018-11-05T04:02:43.400Z,101370.38
2018-11-05T04:05:13.005Z,101374.98
2018-11-05T04:07:42.798Z,101363.09
2018-11-05T04:10:12.739Z,101362.00
2018-11-05T04:12:41.627Z,101358.73
2018-11-05T04:15:10.932Z,101355.85
2018-11-05T04:17:39.710Z,101363.31
2018-11-05T04:20:10.399Z,101352.22
2018-11-05T04:22:39.205Z,101351.29
2018-11-05T04:25:08.104Z,101354.95
2018-11-05T04:27:36.999Z,101354.05
2018-11-05T04:30:07.891Z,101356.03
2018-11-05T04:32:36.707Z,101361.06
2018-11-05T04:35:05.710Z,101359.08
2018-11-05T04:37:34.494Z,101355.59
2018-11-05T04:40:03.404Z,101358.55
2018-11-05T04:42:32.504Z,101351.73
2018-11-05T04:45:01.230Z,101355.19
2018-11-05T04:47:30.003Z,101349.70
2018-11-05T04:49:58.797Z,101341.05
2018-11-05T04:52:27.694Z,101348.45
2018-11-05T04:54:56.445Z,101349.83
2018-11-05T04:57:25.291Z,101344.61
2018-11-05T04:59:54.050Z,101341.34
2018-11-05T05:02:22.859Z,101336.81
2018-11-05T05:04:51.717Z,101332.69
2018-11-05T05:07:20.459Z,101332.27
2018-11-05T05:09:49.211Z,101327.77
2018-11-05T05:12:18.098Z,101335.26
2018-11-05T05:14:46.889Z,101336.59
2018-11-05T05:17:15.805Z,101332.96
2018-11-05T05:19:44.682Z,101331.63
2018-11-05T05:22:13.557Z,101322.77
2018-11-05T05:24:43.066Z,101340.38
2018-11-05T05:27:11.964Z,101332.83
2018-11-05T05:29:40.736Z,101322.95
2018-11-05T05:32:09.532Z,101326.03
2018-11-05T05:34:38.333Z,101323.45
2018-11-05T05:37:07.155Z,101323.45
2018-11-05T05:39:35.976Z,101329.14
2018-11-05T05:42:05.159Z,101329.70
2018-11-05T05:44:33.954Z,101322.24
2018-11-05T05:47:02.842Z,101329.23
2018-11-05T05:49:31.725Z,101323.27
2018-11-05T05:52:00.462Z,101326.19
2018-11-05T05:54:29.282Z,101320.38
2018-11-05T05:56:58.064Z,101322.03
2018-11-05T05:59:26.843Z,101321.81
2018-11-05T06:01:55.587Z,101314.76
2018-11-05T06:04:24.419Z,101317.55
2018-11-05T06:06:53.244Z,101319.51
2018-11-05T06:09:21.988Z,101315.56
2018-11-05T06:11:50.877Z,101318.83
2018-11-05T06:14:19.716Z,101314.04
2018-11-05T06:16:48.497Z,101311.92
2018-11-05T06:19:17.379Z,101316.90
2018-11-05T06:21:46.145Z,101315.37
2018-11-05T06:24:15.611Z,101321.83
2018-11-05T06:26:44.810Z,101322.95
2018-11-05T06:29:13.702Z,101323.77
2018-11-05T06:31:43.348Z,101320.63
2018-11-05T06:34:13.358Z,101323.52
2018-11-05T06:36:43.234Z,101321.28
2018-11-05T06:39:13.219Z,101319.38
2018-11-05T06:41:42.775Z,101331.16
2018-11-05T06:44:11.640Z,101332.98
2018-11-05T06:46:40.432Z,101334.53
2018-11-05T06:49:09.750Z,101339.11
2018-11-05T06:51:38.466Z,101347.03
2018-11-05T06:54:07.326Z,101339.55
2018-11-05T06:56:36.597Z,101343.77
2018-11-05T06:59:05.493Z,101344.45
2018-11-05T07:01:34.295Z,101342.52
2018-11-05T07:04:03.202Z,101340.23
2018-11-05T07:06:32.067Z,101337.86
2018-11-05T07:09:00.854Z,101335.75
2018-11-05T07:11:29.738Z,101335.28
2018-11-05T07:13:58.533Z,101336.09
2018-11-05T07:16:27.359Z,101337.86
2018-11-05T07:18:56.628Z,101337.77
2018-11-05T07:21:25.265Z,101338.52
2018-11-05T07:23:54.049Z,101330.43
2018-11-05T07:26:22.926Z,101334.13
2018-11-05T07:28:51.729Z,101339.31
2018-11-05T07:31:20.523Z,101333.88
2018-11-05T07:33:49.485Z,101334.75
2018-11-05T07:36:18.236Z,101331.25
2018-11-05T07:38:47.129Z,101331.65
2018-11-05T07:41:16.063Z,101330.92
2018-11-05T07:43:44.831Z,101323.98
2018-11-05T07:46:13.903Z,101326.46
2018-11-05T07:48:43.824Z,101326.20
2018-11-05T07:51:13.368Z,101323.34
2018-11-05T07:53:42.190Z,101312.66
2018-11-05T07:56:11.112Z,101311.44
2018-11-05T07:58:40.296Z,101308.58
2018-11-05T08:01:09.119Z,101308.08
2018-11-05T08:03:38.468Z,101305.62
2018-11-05T08:06:07.295Z,101306.12
2018-11-05T08:08:36.245Z,101312.30
2018-11-05T08:11:05.164Z,101312.81
2018-11-05T08:13:34.048Z,101319.00
2018-11-05T08:16:02.958Z,101321.62
2018-11-05T08:18:32.322Z,101318.84
2018-11-05T08:21:01.223Z,101315.86
2018-11-05T08:23:30.032Z,101313.95
2018-11-05T08:25:58.884Z,101317.48
2018-11-05T08:28:27.702Z,101315.48
2018-11-05T08:30:56.560Z,101322.18
2018-11-05T08:33:25.438Z,101321.52
2018-11-05T08:35:55.569Z,101323.53
2018-11-05T08:38:24.363Z,101310.63
2018-11-05T08:40:53.173Z,101304.57
2018-11-05T08:43:21.966Z,101303.53
2018-11-05T08:45:50.958Z,101304.00
2018-11-05T08:48:19.842Z,101301.53
2018-11-05T08:50:48.799Z,101300.66
2018-11-05T08:53:17.631Z,101296.14
2018-11-05T08:55:46.528Z,101300.92
2018-11-05T08:58:15.451Z,101288.13
2018-11-05T09:00:48.626Z,101286.20
2018-11-05T09:03:17.511Z,101282.20
2018-11-05T09:05:46.399Z,101276.08
2018-11-05T09:08:15.299Z,101276.27
2018-11-05T09:10:44.664Z,101270.08
2018-11-05T09:13:14.111Z,101273.13
2018-11-05T09:15:43.615Z,101268.84
2018-11-05T09:18:12.474Z,101268.53
2018-11-05T09:20:41.448Z,101270.34
2018-11-05T09:23:10.554Z,101271.70
2018-11-05T09:25:39.554Z,101272.53
2018-11-05T09:28:08.508Z,101267.17
2018-11-05T09:30:37.547Z,101260.22
2018-11-05T09:33:06.538Z,101260.50
2018-11-05T09:35:35.416Z,101263.27
2018-11-05T09:38:04.278Z,101261.56
2018-11-05T09:40:33.006Z,101256.58
2018-11-05T09:43:01.824Z,101258.20
2018-11-05T09:45:37.225Z,101260.20
2018-11-05T09:48:06.198Z,101264.52
2018-11-05T09:50:35.149Z,101260.67
2018-11-05T09:53:04.328Z,101267.00
2018-11-05T09:55:33.162Z,101266.91
2018-11-05T09:58:02.025Z,101268.69
2018-11-05T10:00:31.228Z,101262.69
2018-11-05T10:03:02.409Z,101261.25
2018-11-05T10:05:31.254Z,101258.08
2018-11-05T10:08:00.171Z,101251.65
2018-11-05T10:10:29.109Z,101256.72
2018-11-05T10:12:57.893Z,101245.14
2018-11-05T10:15:26.917Z,101247.95
2018-11-05T10:17:55.743Z,101251.94
2018-11-05T10:20:25.278Z,101248.97
2018-11-05T10:22:54.449Z,101249.12
2018-11-05T10:25:23.354Z,101245.95
2018-11-05T10:27:52.599Z,101249.08
2018-11-05T10:30:25.686Z,101247.81
2018-11-05T10:32:54.631Z,101245.33
2018-11-05T10:35:28.582Z,101238.92
2018-11-05T10:37:57.502Z,101235.69
2018-11-05T10:40:26.356Z,101239.31
2018-11-05T10:42:55.258Z,101250.80
2018-11-05T10:45:24.146Z,101244.31
2018-11-05T10:47:52.972Z,101243.93
2018-11-05T10:50:21.841Z,101244.03
2018-11-05T10:52:51.725Z,101245.38
2018-11-05T10:55:20.617Z,101225.55
2018-11-05T10:57:50.185Z,101233.61
2018-11-05T11:00:25.288Z,101237.07
2018-11-05T11:02:59.238Z,101241.53
2018-11-05T11:05:29.163Z,101240.66
2018-11-05T11:07:58.796Z,101227.47
2018-11-05T11:10:28.633Z,101221.34
2018-11-05T11:12:57.653Z,101219.80
2018-11-05T11:15:26.553Z,101207.20
2018-11-05T11:17:56.022Z,101206.99
2018-11-05T11:20:24.818Z,101204.61
2018-11-05T11:22:53.533Z,101206.02
2018-11-05T11:25:22.470Z,101202.19
2018-11-05T11:27:51.387Z,101198.74
2018-11-05T11:30:20.125Z,101193.13
2018-11-05T11:32:49.682Z,101192.81
2018-11-05T11:35:18.502Z,101188.18
2018-11-05T11:37:47.330Z,101189.44
2018-11-05T11:40:19.988Z,101193.75
2018-11-05T11:42:49.343Z,101188.40
2018-11-05T11:45:19.357Z,101188.25
2018-11-05T11:47:48.173Z,101183.26
2018-11-05T11:50:17.684Z,101184.45
2018-11-05T11:52:46.656Z,101180.75
2018-11-05T11:55:17.816Z,101181.91
2018-11-05T11:57:46.661Z,101176.84
2018-11-05T12:00:20.050Z,101173.08
2018-11-05T12:02:49.525Z,101170.08
2018-11-05T12:05:18.378Z,101169.72
2018-11-05T12:07:47.619Z,101161.17
2018-11-05T12:10:24.575Z,101153.00
2018-11-05T12:12:53.485Z,101153.80
2018-11-05T12:15:23.020Z,101154.63
2018-11-05T12:17:52.690Z,101150.56
2018-11-05T12:20:23.209Z,101148.76
2018-11-05T12:22:52.426Z,101127.11
2018-11-05T12:25:21.269Z,101123.83
2018-11-05T12:27:50.211Z,101122.73
2018-11-05T12:30:22.323Z,101121.80
2018-11-05T12:32:52.136Z,101119.98
2018-11-05T12:35:20.976Z,101114.05
2018-11-05T12:37:50.931Z,101114.66
2018-11-05T12:40:21.064Z,101102.46
2018-11-05T12:42:50.668Z,101094.42
2018-11-05T12:45:19.595Z,101098.27
2018-11-05T12:47:48.747Z,101092.86
2018-11-05T12:50:19.692Z,101093.84
2018-11-05T12:52:49.603Z,101103.70
2018-11-05T12:55:18.422Z,101100.66
2018-11-05T12:57:47.597Z,101094.48
2018-11-05T13:00:19.452Z,101090.02
2018-11-05T13:02:53.186Z,101086.64
2018-11-05T13:05:22.585Z,101084.23
2018-11-05T13:07:51.587Z,101080.91
2018-11-05T13:10:20.768Z,101067.23
2018-11-05T13:12:49.760Z,101075.62
2018-11-05T13:15:18.662Z,101087.76
2018-11-05T13:17:47.391Z,101093.00
2018-11-05T13:20:20.386Z,101089.16
2018-11-05T13:22:49.270Z,101103.56
2018-11-05T13:25:18.207Z,101100.55
2018-11-05T13:27:49.148Z,101099.19
2018-11-05T13:30:18.343Z,101093.55
2018-11-05T13:32:47.253Z,101099.08
2018-11-05T13:35:17.523Z,101097.29
2018-11-05T13:37:46.761Z,101103.52
2018-11-05T13:40:16.511Z,101103.41
2018-11-05T13:42:45.898Z,101098.37
2018-11-05T13:45:15.287Z,101094.89
2018-11-05T13:47:45.984Z,101095.01
2018-11-05T13:50:14.581Z,101095.19
2018-11-05T13:52:43.996Z,101094.61
2018-11-05T13:55:15.788Z,101088.95
2018-11-05T13:57:45.569Z,101080.97
2018-11-05T14:00:15.813Z,101085.56
2018-11-05T14:02:44.639Z,101078.17
2018-11-05T14:05:14.042Z,101076.79
2018-11-05T14:07:43.920Z,101084.40
2018-11-05T14:10:18.178Z,101077.29
2018-11-05T14:12:47.284Z,101080.03
2018-11-05T14:15:15.956Z,101068.45
2018-11-05T14:17:45.440Z,101073.05
2018-11-05T14:20:15.250Z,101066.69
2018-11-05T14:22:44.184Z,101059.95
2018-11-05T14:25:15.260Z,101068.80
2018-11-05T14:27:46.492Z,101072.36
2018-11-05T14:30:15.308Z,101057.03
2018-11-05T14:32:45.380Z,101058.48
2018-11-05T14:35:14.220Z,101055.96
2018-11-05T14:37:43.794Z,101051.48
2018-11-05T14:40:14.303Z,101045.97
2018-11-05T14:42:43.969Z,101049.36
2018-11-05T14:45:15.942Z,101052.02
2018-11-05T14:47:45.514Z,101046.09
2018-11-05T14:50:16.806Z,101055.47
2018-11-05T14:52:45.656Z,101051.37
2018-11-05T14:55:16.070Z,101051.70
2018-11-05T14:57:45.865Z,101065.77
2018-11-05T15:00:16.648Z,101058.35
2018-11-05T15:02:46.279Z,101058.49
2018-11-05T15:05:15.600Z,101062.30
2018-11-05T15:07:45.300Z,101068.11
2018-11-05T15:10:16.590Z,101074.66
2018-11-05T15:12:45.468Z,101076.48
2018-11-05T15:15:14.863Z,101065.86
2018-11-05T15:17:44.414Z,101060.84
2018-11-05T15:20:17.427Z,101062.22
2018-11-05T15:22:45.978Z,101049.41
2018-11-05T15:25:15.130Z,101042.83
2018-11-05T15:27:44.047Z,101036.30
2018-11-05T15:30:16.172Z,101045.26
2018-11-05T15:32:45.098Z,101049.09
2018-11-05T15:35:14.169Z,101055.56
2018-11-05T15:37:44.559Z,101051.09
2018-11-05T15:40:15.478Z,101045.55
2018-11-05T15:42:45.107Z,101029.56
2018-11-05T15:45:15.188Z,101032.53
2018-11-05T15:47:44.270Z,101030.07
2018-11-05T15:50:15.998Z,101030.83
2018-11-05T15:52:45.100Z,101026.34
2018-11-05T15:55:14.238Z,101026.84
2018-11-05T15:57:44.059Z,101034.66
2018-11-05T16:00:20.964Z,101031.62
2018-11-05T16:02:51.786Z,101051.41
2018-11-05T16:05:20.670Z,101045.72
2018-11-05T16:07:49.513Z,101038.05
2018-11-05T16:10:18.704Z,101034.36
2018-11-05T16:12:47.536Z,101037.51
2018-11-05T16:15:16.314Z,101042.93
2018-11-05T16:17:45.212Z,101035.59
2018-11-05T16:20:17.447Z,101039.54
2018-11-05T16:22:46.878Z,101040.34
2018-11-05T16:25:15.634Z,101039.54
2018-11-05T16:27:44.613Z,101039.25
2018-11-05T16:30:15.701Z,101047.10
2018-11-05T16:32:45.000Z,101037.44
2018-11-05T16:35:14.126Z,101037.80
2018-11-05T16:37:42.951Z,101031.83
2018-11-05T16:40:14.333Z,101029.26
2018-11-05T16:42:44.917Z,101027.20
2018-11-05T16:45:14.072Z,101031.87
2018-11-05T16:47:43.217Z,101029.87
2018-11-05T16:50:21.683Z,101027.53
2018-11-05T16:52:50.468Z,101024.68
2018-11-05T16:55:19.286Z,101022.18
2018-11-05T16:57:48.138Z,101017.34
2018-11-05T17:00:17.468Z,101017.77
2018-11-05T17:02:47.205Z,101021.83
2018-11-05T17:05:15.757Z,101019.00
2018-11-05T17:07:44.644Z,101020.34
2018-11-05T17:10:14.976Z,101018.30
2018-11-05T17:12:45.099Z,101017.36
2018-11-05T17:15:15.255Z,101014.23
2018-11-05T17:17:44.508Z,101012.87
2018-11-05T17:20:16.851Z,101025.11
2018-11-05T17:22:45.991Z,101012.23
2018-11-05T17:25:15.175Z,101001.81
2018-11-05T17:27:44.848Z,100999.55
2018-11-05T17:30:17.323Z,101019.30
2018-11-05T17:32:46.297Z,101024.36
2018-11-05T17:35:15.757Z,101025.88
2018-11-05T17:37:45.079Z,101028.44
2018-11-05T17:40:15.500Z,101021.23
2018-11-05T17:42:44.226Z,101008.88
2018-11-05T17:45:15.396Z,101005.11
2018-11-05T17:47:44.432Z,101005.73
2018-11-05T17:50:15.616Z,100997.59
2018-11-05T17:52:44.766Z,101006.52
2018-11-05T17:55:14.660Z,101011.79
2018-11-05T17:57:45.316Z,101014.23
2018-11-05T18:00:19.899Z,101003.05
2018-11-05T18:02:48.637Z,101003.57
2018-11-05T18:05:17.414Z,100994.08
2018-11-05T18:07:46.548Z,101006.20
2018-11-05T18:10:15.317Z,101004.20
2018-11-05T18:12:44.395Z,100981.38
2018-11-05T18:15:14.530Z,100978.38
2018-11-05T18:17:45.217Z,100974.62
2018-11-05T18:20:15.156Z,100976.44
2018-11-05T18:22:44.163Z,100971.02
2018-11-05T18:25:15.179Z,100964.22
2018-11-05T18:27:44.474Z,100968.97
2018-11-05T18:30:14.879Z,100964.77
2018-11-05T18:32:44.329Z,100955.13
2018-11-05T18:35:14.923Z,100953.24
2018-11-05T18:37:45.630Z,100944.75
2018-11-05T18:40:15.518Z,100943.99
2018-11-05T18:42:44.829Z,100936.16
2018-11-05T18:45:14.442Z,100943.16
2018-11-05T18:47:44.380Z,100937.53
2018-11-05T18:50:15.515Z,100937.56
2018-11-05T18:52:44.654Z,100933.19
2018-11-05T18:55:15.619Z,100929.68
2018-11-05T18:57:44.349Z,100933.22
2018-11-05T19:00:19.154Z,100936.00
2018-11-05T19:02:48.259Z,100924.91
2018-11-05T19:05:17.458Z,100914.61
2018-11-05T19:07:46.529Z,100914.14
2018-11-05T19:10:15.391Z,100914.75
2018-11-05T19:12:44.550Z,100926.95
2018-11-05T19:15:15.368Z,100917.60
2018-11-05T19:17:45.201Z,100914.56
2018-11-05T19:20:14.234Z,100905.89
2018-11-05T19:22:43.927Z,100911.16
2018-11-05T19:25:13.726Z,100916.99
2018-11-05T19:27:42.941Z,100906.30
2018-11-05T19:30:17.320Z,100898.00
2018-11-05T19:32:46.525Z,100894.96
2018-11-05T19:35:15.332Z,100877.20
2018-11-05T19:37:44.814Z,100900.45
2018-11-05T19:40:15.176Z,100900.48
2018-11-05T19:42:45.305Z,100893.23
2018-11-05T19:45:16.266Z,100882.44
2018-11-05T19:47:45.006Z,100879.60
2018-11-05T19:50:17.041Z,100878.77
2018-11-05T19:52:46.399Z,100882.95
2018-11-05T19:55:16.302Z,100873.00
2018-11-05T19:57:45.923Z,100873.60
2018-11-05T20:00:24.569Z,100883.84
2018-11-05T20:02:54.049Z,100885.44
2018-11-05T20:05:22.915Z,100884.79
2018-11-05T20:07:52.462Z,100880.67
2018-11-05T20:10:21.359Z,100880.86
2018-11-05T20:12:50.283Z,100867.03
2018-11-05T20:15:19.475Z,100871.72
2018-11-05T20:17:49.256Z,100881.06
2018-11-05T20:20:19.357Z,100878.98
2018-11-05T20:22:48.351Z,100880.11
2018-11-05T20:25:17.501Z,100881.34
2018-11-05T20:27:46.218Z,100879.91
2018-11-05T20:30:18.320Z,100875.36
2018-11-05T20:32:48.457Z,100879.06
2018-11-05T20:35:16.794Z,100884.98
2018-11-05T20:37:45.642Z,100889.86
2018-11-05T20:40:16.987Z,100891.28
2018-11-05T20:42:46.742Z,100881.53
2018-11-05T20:45:17.171Z,100884.12
2018-11-05T20:47:45.924Z,100890.03
2018-11-05T20:50:15.791Z,100892.62
2018-11-05T20:52:45.131Z,100887.95
2018-11-05T20:55:15.743Z,100886.59
2018-11-05T20:57:48.362Z,100887.27
2018-11-05T21:00:19.139Z,100882.61
2018-11-05T21:02:47.909Z,100880.70
2018-11-05T21:05:16.767Z,100889.27
2018-11-05T21:07:45.833Z,100879.70
2018-11-05T21:10:15.448Z,100877.43
2018-11-05T21:12:45.126Z,100879.89
2018-11-05T21:15:16.260Z,100881.15
2018-11-05T21:17:46.315Z,100879.73
2018-11-05T21:20:15.302Z,100872.86
2018-11-05T21:22:45.296Z,100870.77
2018-11-05T21:25:14.808Z,100861.05
2018-11-05T21:27:43.975Z,100863.33
2018-11-05T21:30:14.878Z,100858.30
2018-11-05T21:32:45.251Z,100855.33
2018-11-05T21:35:16.509Z,100857.45
2018-11-05T21:37:45.223Z,100859.82
2018-11-05T21:40:16.195Z,100853.93
2018-11-05T21:42:44.960Z,100855.73
2018-11-05T21:45:15.493Z,100855.17
2018-11-05T21:47:45.618Z,100854.78
2018-11-05T21:50:16.241Z,100850.52
2018-11-05T21:52:45.435Z,100849.95
2018-11-05T21:55:14.897Z,100844.85
2018-11-05T21:57:45.179Z,100841.81
2018-11-05T22:00:19.407Z,100839.34
2018-11-05T22:02:53.321Z,100843.41
2018-11-05T22:05:22.519Z,100835.34
2018-11-05T22:07:51.283Z,100830.28
2018-11-05T22:10:19.987Z,100821.03
2018-11-05T22:12:49.139Z,100810.84
2018-11-05T22:15:18.186Z,100812.17
2018-11-05T22:17:47.222Z,100811.50
2018-11-05T22:20:16.175Z,100812.27
2018-11-05T22:22:45.008Z,100817.20
2018-11-05T22:25:13.672Z,100823.16
2018-11-05T22:27:42.516Z,100824.07
2018-11-05T22:30:12.147Z,100819.61
2018-11-05T22:32:40.906Z,100816.44
2018-11-05T22:35:09.934Z,100815.88
2018-11-05T22:37:38.730Z,100807.69
2018-11-05T22:40:10.400Z,100809.03
2018-11-05T22:42:39.238Z,100810.26
2018-11-05T22:45:08.477Z,100808.27
2018-11-05T22:47:37.316Z,100812.27
2018-11-05T22:50:06.469Z,100822.28
2018-11-05T22:52:35.195Z,100815.11
2018-11-05T22:55:04.142Z,100801.41
2018-11-05T22:57:32.968Z,100800.38
2018-11-05T23:00:01.791Z,100795.41
2018-11-05T23:02:30.711Z,100799.21
2018-11-05T23:04:59.440Z,100796.34
2018-11-05T23:07:28.191Z,100788.34
2018-11-05T23:09:56.955Z,100790.08
2018-11-05T23:12:25.661Z,100796.64
2018-11-05T23:14:54.377Z,100796.54
2018-11-05T23:17:23.603Z,100795.20
2018-11-05T23:19:52.510Z,100803.88
2018-11-05T23:22:21.238Z,100804.55
2018-11-05T23:24:49.985Z,100804.55
2018-11-05T23:27:18.860Z,100808.64
2018-11-05T23:29:47.631Z,100802.64
2018-11-05T23:32:16.558Z,100798.74
2018-11-05T23:34:45.266Z,100800.34
2018-11-05T23:37:15.069Z,100798.34
2018-11-05T23:39:43.897Z,100796.24
2018-11-05T23:42:12.603Z,100794.34
2018-11-05T23:44:41.310Z,100797.98
2018-11-05T23:47:10.386Z,100784.08
2018-11-05T23:49:39.122Z,100783.58
2018-11-05T23:52:07.928Z,100787.02
2018-11-05T23:54:36.782Z,100780.74
2018-11-05T23:57:05.562Z,100781.41
2018-11-05T23:59:34.280Z,100784.44
